Anderson Island, Washington
Current Conditions -  °F | °C
As of 9:58 AM on Friday 24 Oct 2014 (Local Time) from KGRF Reporting Station
Drizzle Drizzle  
Wind Chill: 46°   Ceiling: Unl
Heat Index: 48°   Visibility: 10mi
Dew Point: 48°   Wind: 5mph
Humidity: 99%   Direction: NA
Pressure: 30.03"   Gusts: NA
Location:  47.16°N, 122.7°W
Report Text: KGRF 241658Z AUTO VRB04KT 10SM DZ FEW180 09/09 A3003 RMK AO2 SLP174 P0000 T00890087 $
Loading
Personal Weather Stations






























Interactive Weather Map
Tropical Storm Tracking
New forecast layout! Learn more

10-Day Weather Forecast

Advertisements
Track Severe Weather on mobile